Time;durP1;ratioP1;P1;durP2;ratioP2;P2;SDS_P1;SDS_P2;PMS_P1;PMS_P2;Temp;Humidity;BMP_temperature;BMP_pressure;BME280_temperature;BME280_humidity;BME280_pressure;Samples;Min_cycle;Max_cycle;Signal;HPM_P1;HPM_P2
2021/11/23 00:01:46;;;;;;;6.60;2.33;;;;;;;10.15;61.33;101642.69;5029945;28;20217;-72
2021/11/23 00:04:12;;;;;;;8.70;2.53;;;;;;;10.45;61.19;101644.19;5029719;28;20687;-72
2021/11/23 00:06:38;;;;;;;7.47;2.60;;;;;;;10.36;61.58;101639.19;5030610;28;20579;-71
2021/11/23 00:09:04;;;;;;;4.83;2.07;;;;;;;10.75;61.16;101646.53;5029314;28;20192;-71
2021/11/23 00:11:29;;;;;;;8.67;2.83;;;;;;;10.49;60.84;101640.47;5030105;28;20172;-73
2021/11/23 00:13:54;;;;;;;4.17;2.27;;;;;;;10.56;60.92;101628.63;5029179;28;20171;-73
2021/11/23 00:16:20;;;;;;;7.10;2.53;;;;;;;10.63;61.14;101642.59;5029550;28;20228;-70
2021/11/23 00:18:46;;;;;;;5.57;2.17;;;;;;;11.15;60.12;101635.06;5028806;28;20281;-72
2021/11/23 00:21:11;;;;;;;6.90;2.40;;;;;;;11.10;59.79;101634.41;5029126;28;20225;-74
2021/11/23 00:23:37;;;;;;;4.83;1.80;;;;;;;10.69;60.66;101644.13;5029081;28;20643;-74
2021/11/23 00:26:02;;;;;;;10.23;2.17;;;;;;;10.86;61.07;101650.53;5029117;28;20183;-74
2021/11/23 00:28:27;;;;;;;9.57;2.60;;;;;;;11.07;60.54;101638.06;5028933;28;20207;-74
2021/11/23 00:30:53;;;;;;;7.53;2.00;;;;;;;11.07;60.44;101642.53;5028990;28;20213;-74
2021/11/23 00:33:18;;;;;;;5.73;2.33;;;;;;;11.20;60.65;101635.78;5028802;28;20604;-73
2021/11/23 00:35:45;;;;;;;6.03;2.30;;;;;;;11.07;60.61;101647.88;5029917;28;20176;-73
2021/11/23 00:38:10;;;;;;;2.40;1.90;;;;;;;10.95;62.20;101660.84;5028935;28;20200;-73
2021/11/23 00:40:35;;;;;;;7.13;2.37;;;;;;;10.83;62.93;101647.13;5028913;28;20231;-73
2021/11/23 00:43:04;;;;;;;5.80;2.07;;;;;;;11.06;62.17;101662.19;5029346;28;20542;-73
2021/11/23 00:45:31;;;;;;;8.37;2.23;;;;;;;10.90;62.87;101654.81;5029455;28;20202;-74
2021/11/23 00:47:56;;;;;;;7.77;2.30;;;;;;;10.81;63.69;101651.66;5030474;28;20268;-75
2021/11/23 00:50:22;;;;;;;5.37;2.13;;;;;;;10.94;62.84;101647.53;5030807;28;20671;-74
2021/11/23 00:52:47;;;;;;;10.60;2.43;;;;;;;11.28;63.29;101647.88;5029154;28;20205;-74
2021/11/23 00:55:12;;;;;;;3.97;1.87;;;;;;;11.13;63.59;101653.84;5028600;28;20241;-74
2021/11/23 00:57:38;;;;;;;5.07;1.90;;;;;;;11.37;62.75;101657.28;5029012;28;20171;-74
2021/11/23 01:00:06;;;;;;;5.97;2.17;;;;;;;11.63;63.39;101664.16;5028505;28;20207;-73
2021/11/23 01:02:31;;;;;;;7.70;2.43;;;;;;;11.78;63.49;101662.66;5029557;28;20267;-73
2021/11/23 01:04:56;;;;;;;10.27;2.27;;;;;;;11.25;63.91;101652.47;5011896;28;20211;-73
2021/11/23 01:07:22;;;;;;;13.23;2.67;;;;;;;11.51;64.08;101644.16;5028421;28;20199;-73
2021/11/23 01:09:47;;;;;;;6.87;2.23;;;;;;;11.02;64.84;101656.09;5029739;28;20286;-73
2021/11/23 01:12:12;;;;;;;7.50;2.00;;;;;;;11.77;64.07;101643.03;5013691;28;20187;-74
2021/11/23 01:14:38;;;;;;;6.83;2.10;;;;;;;11.47;64.78;101657.75;5011952;28;20198;-73
2021/11/23 01:17:03;;;;;;;7.80;2.23;;;;;;;11.66;64.83;101652.47;5028312;28;20633;-73
2021/11/23 01:19:28;;;;;;;10.27;2.17;;;;;;;11.66;65.45;101649.78;5028203;28;20204;-73
2021/11/23 01:21:54;;;;;;;3.87;1.97;;;;;;;11.69;64.70;101647.84;5038330;28;20236;-73
2021/11/23 01:24:19;;;;;;;12.30;2.93;;;;;;;11.86;65.16;101645.31;5031928;28;20178;-74
2021/11/23 01:26:45;;;;;;;16.50;4.63;;;;;;;11.58;64.23;101640.31;5031806;28;20180;-74
2021/11/23 01:29:10;;;;;;;6.40;2.30;;;;;;;11.97;64.91;101639.50;5033565;28;20665;-73
2021/11/23 01:31:36;;;;;;;7.37;2.43;;;;;;;12.25;63.68;101635.50;5039251;28;20186;-74
2021/11/23 01:34:02;;;;;;;3.23;1.90;;;;;;;11.98;64.23;101645.72;5031968;28;20619;-73
2021/11/23 01:36:27;;;;;;;6.10;2.13;;;;;;;12.19;64.03;101642.03;5032801;28;20184;-74
2021/11/23 01:38:52;;;;;;;8.30;2.07;;;;;;;12.19;64.26;101642.88;5032872;28;20203;-73
2021/11/23 01:41:18;;;;;;;8.77;2.53;;;;;;;12.21;64.38;101640.13;5015034;28;20180;-73
2021/11/23 01:43:43;;;;;;;11.37;2.47;;;;;;;12.08;64.20;101644.34;5032831;28;20545;-75
2021/11/23 01:46:09;;;;;;;14.07;2.50;;;;;;;12.76;62.80;101646.41;5031869;28;20278;-75
2021/11/23 01:48:35;;;;;;;9.00;2.20;;;;;;;13.06;62.63;101644.03;5014909;28;20219;-75
2021/11/23 01:51:01;;;;;;;9.57;2.20;;;;;;;12.35;64.03;101643.06;5031522;28;20213;-74
2021/11/23 01:53:26;;;;;;;10.90;2.47;;;;;;;12.31;64.08;101637.91;5032957;28;20184;-74
2021/11/23 01:55:52;;;;;;;9.50;2.50;;;;;;;12.71;63.42;101645.78;5031309;28;20211;-74
2021/11/23 01:58:17;;;;;;;9.00;2.23;;;;;;;12.66;63.40;101630.88;5031406;28;20220;-74
2021/11/23 02:00:45;;;;;;;9.80;2.40;;;;;;;12.40;64.09;101629.44;5032745;28;20204;-73
2021/11/23 02:03:11;;;;;;;7.60;2.53;;;;;;;12.83;63.29;101630.91;5031015;28;20176;-73
2021/11/23 02:05:36;;;;;;;7.60;2.40;;;;;;;12.78;62.89;101622.22;5031126;28;20180;-74
2021/11/23 02:08:02;;;;;;;9.13;2.80;;;;;;;12.68;63.12;101616.47;5031953;28;20684;-75
2021/11/23 02:10:27;;;;;;;4.40;2.17;;;;;;;12.74;62.99;101624.19;5030883;28;20199;-72
2021/11/23 02:12:53;;;;;;;8.53;2.50;;;;;;;12.77;62.99;101615.13;5030970;28;20620;-73
2021/11/23 02:15:18;;;;;;;8.17;2.80;;;;;;;12.96;62.69;101628.47;5032078;28;20180;-73
2021/11/23 02:17:44;;;;;;;9.07;2.57;;;;;;;12.55;63.27;101619.78;5030840;28;20203;-73
2021/11/23 02:20:11;;;;;;;11.10;2.50;;;;;;;12.38;64.35;101615.25;5014343;28;20572;-73
2021/11/23 02:22:37;;;;;;;4.70;2.60;;;;;;;12.65;62.73;101608.59;5014228;28;20645;-74
2021/11/23 02:25:04;;;;;;;7.77;2.80;;;;;;;12.06;65.33;101631.03;5030832;28;20186;-74
2021/11/23 02:27:29;;;;;;;6.93;3.07;;;;;;;12.28;63.95;101625.56;5030625;28;20572;-74
2021/11/23 02:29:54;;;;;;;6.50;2.90;;;;;;;12.40;64.23;101624.09;5031972;28;20199;-74
2021/11/23 02:32:19;;;;;;;6.43;2.73;;;;;;;12.45;64.26;101612.22;5031707;28;20242;-74
2021/11/23 02:34:45;;;;;;;8.40;3.23;;;;;;;12.27;64.68;101606.91;5031760;28;20177;-74
2021/11/23 02:37:10;;;;;;;5.37;3.23;;;;;;;12.42;64.09;101614.19;5030773;28;20199;-74
2021/11/23 02:39:36;;;;;;;8.03;3.37;;;;;;;12.44;64.08;101615.84;5031886;28;20206;-74
2021/11/23 02:42:01;;;;;;;5.47;3.10;;;;;;;12.19;64.41;101616.13;5030373;28;20603;-74
2021/11/23 02:44:26;;;;;;;6.30;2.83;;;;;;;12.25;64.04;101598.91;5030548;28;20187;-74
2021/11/23 02:46:52;;;;;;;9.13;3.50;;;;;;;12.57;64.32;101605.38;5032138;28;20214;-74
2021/11/23 02:49:20;;;;;;;6.57;3.67;;;;;;;12.66;63.91;101601.41;5030431;28;20630;-74
2021/11/23 02:51:45;;;;;;;7.50;3.50;;;;;;;12.43;64.66;101597.16;5030539;28;20170;-73
2021/11/23 02:54:10;;;;;;;9.43;4.10;;;;;;;12.68;64.88;101612.91;5013671;28;20252;-73
2021/11/23 02:56:36;;;;;;;6.40;4.40;;;;;;;12.19;65.26;101605.41;5030297;28;20183;-74
2021/11/23 02:59:01;;;;;;;9.87;4.67;;;;;;;12.19;65.87;101600.06;5030128;28;20204;-74
2021/11/23 03:01:27;;;;;;;6.80;3.80;;;;;;;12.98;63.54;101591.72;5032615;28;20191;-74
2021/11/23 03:03:54;;;;;;;8.20;4.50;;;;;;;13.22;63.53;101598.56;5031535;28;20177;-74
2021/11/23 03:06:20;;;;;;;7.83;4.90;;;;;;;13.17;64.10;101584.53;5030171;28;20176;-73
2021/11/23 03:08:47;;;;;;;10.57;4.60;;;;;;;12.62;65.38;101591.75;5029910;28;20211;-74
2021/11/23 03:11:14;;;;;;;12.77;5.90;;;;;;;12.72;64.87;101599.28;5013388;28;20187;-74
2021/11/23 03:13:39;;;;;;;9.77;5.10;;;;;;;12.47;65.17;101588.91;5030151;28;20184;-74
2021/11/23 03:16:05;;;;;;;7.93;5.23;;;;;;;12.74;65.27;101586.69;5031394;28;20518;-74
2021/11/23 03:18:31;;;;;;;7.87;5.43;;;;;;;13.17;64.05;101562.19;5030079;28;20567;-73
2021/11/23 03:20:57;;;;;;;7.77;5.30;;;;;;;12.80;64.98;101572.13;5031092;28;20210;-73
2021/11/23 03:23:22;;;;;;;11.27;6.47;;;;;;;13.13;63.82;101565.03;5029871;28;20202;-74
2021/11/23 03:25:48;;;;;;;8.87;6.33;;;;;;;12.93;64.43;101577.72;5030150;28;20616;-74
2021/11/23 03:28:13;;;;;;;9.73;5.77;;;;;;;13.02;64.11;101582.63;5030188;28;20315;-74
2021/11/23 03:30:38;;;;;;;8.70;6.00;;;;;;;12.89;64.28;101565.41;5031293;28;20188;-74
2021/11/23 03:33:06;;;;;;;8.17;5.33;;;;;;;13.47;63.12;101570.47;5031161;28;20172;-75
2021/11/23 03:35:33;;;;;;;8.47;5.30;;;;;;;12.92;64.83;101573.28;5029789;28;20173;-74
2021/11/23 03:37:59;;;;;;;11.70;5.90;;;;;;;12.82;64.80;101562.19;5029735;28;20260;-74
2021/11/23 03:40:26;;;;;;;15.57;6.50;;;;;;;13.34;64.02;101571.09;5030633;28;20203;-75
2021/11/23 03:42:52;;;;;;;9.13;5.93;;;;;;;13.45;63.63;101578.59;5013241;28;20180;-74
2021/11/23 03:45:18;;;;;;;11.93;7.13;;;;;;;13.40;64.28;101578.84;5030707;28;20168;-74
2021/11/23 03:47:43;;;;;;;12.00;6.60;;;;;;;13.13;64.66;101573.06;5028991;28;20218;-74
2021/11/23 03:50:11;;;;;;;13.00;7.03;;;;;;;13.58;63.78;101574.31;5013960;28;20302;-74
2021/11/23 03:52:36;;;;;;;11.57;6.77;;;;;;;13.24;64.07;101574.34;5029748;28;20256;-74
2021/11/23 03:55:03;;;;;;;12.73;6.53;;;;;;;14.02;62.81;101577.25;5029546;28;20176;-74
2021/11/23 03:57:29;;;;;;;16.43;7.77;;;;;;;14.03;62.43;101584.34;5029422;28;20216;-74
2021/11/23 03:59:54;;;;;;;11.33;7.73;;;;;;;13.13;63.77;101585.63;5030748;28;20203;-74
2021/11/23 04:02:22;;;;;;;13.07;7.40;;;;;;;13.47;64.27;101589.25;5029329;28;20275;-74
2021/11/23 04:04:48;;;;;;;16.17;8.60;;;;;;;13.50;63.69;101584.59;5013203;28;20173;-74
2021/11/23 04:07:13;;;;;;;13.00;8.77;;;;;;;13.54;63.64;101580.78;5029999;28;20196;-74
2021/11/23 04:09:38;;;;;;;12.13;7.87;;;;;;;13.61;63.59;101573.28;5029862;28;20579;-73
2021/11/23 04:12:04;;;;;;;12.90;8.13;;;;;;;13.61;64.14;101575.97;5029556;28;20181;-73
2021/11/23 04:14:29;;;;;;;14.77;8.50;;;;;;;13.41;63.98;101577.91;5029833;28;20180;-74
2021/11/23 04:16:55;;;;;;;15.20;9.30;;;;;;;13.67;63.51;101563.06;5030172;28;20656;-75
2021/11/23 04:19:20;;;;;;;16.30;8.17;;;;;;;14.03;62.80;101564.69;5030139;28;20287;-73
2021/11/23 04:21:45;;;;;;;16.53;9.73;;;;;;;13.48;63.95;101573.06;5029594;28;20180;-75
2021/11/23 04:24:11;;;;;;;17.63;9.20;;;;;;;13.75;63.70;101582.31;5030075;28;20210;-72
2021/11/23 04:26:36;;;;;;;18.43;8.73;;;;;;;14.11;62.66;101572.31;5030553;28;20180;-75
2021/11/23 04:29:01;;;;;;;16.87;9.83;;;;;;;13.88;63.29;101566.41;5029524;28;20672;-72
2021/11/23 04:31:27;;;;;;;15.83;9.70;;;;;;;13.66;63.66;101566.72;5012789;28;20187;-74
2021/11/23 04:33:53;;;;;;;16.97;9.67;;;;;;;13.78;63.83;101570.56;5029145;28;20188;-74
2021/11/23 04:36:18;;;;;;;17.73;9.83;;;;;;;13.53;64.19;101575.50;5028816;28;20168;-74
2021/11/23 04:38:44;;;;;;;17.50;11.40;;;;;;;13.88;63.25;101566.41;5028944;28;20688;-75
2021/11/23 04:41:09;;;;;;;14.93;9.40;;;;;;;13.81;63.75;101569.53;5030488;28;20180;-74
2021/11/23 04:43:34;;;;;;;20.73;10.23;;;;;;;13.85;63.25;101577.31;5029878;28;20663;-74
2021/11/23 04:45:59;;;;;;;23.23;9.70;;;;;;;13.93;63.23;101566.16;5029706;28;20191;-73
2021/11/23 04:48:25;;;;;;;18.23;9.70;;;;;;;13.84;64.22;101569.34;5029729;28;20287;-76
2021/11/23 04:50:51;;;;;;;16.93;9.70;;;;;;;13.80;63.63;101571.34;5028949;28;20191;-73
2021/11/23 04:53:16;;;;;;;18.67;10.77;;;;;;;13.86;63.63;101570.13;5030335;28;20230;-74
2021/11/23 04:55:41;;;;;;;18.03;10.10;;;;;;;13.53;64.14;101560.28;5029310;28;20181;-74
2021/11/23 04:58:07;;;;;;;19.60;10.20;;;;;;;13.73;63.96;101568.09;5029474;28;20208;-74
2021/11/23 05:00:32;;;;;;;17.63;10.23;;;;;;;13.71;64.50;101572.69;5033174;28;20182;-75
2021/11/23 05:02:57;;;;;;;17.60;9.20;;;;;;;13.40;65.04;101561.91;5032379;28;20184;-75
2021/11/23 05:05:25;;;;;;;19.67;9.53;;;;;;;13.62;64.67;101566.97;5032476;27;20188;-74
2021/11/23 05:07:50;;;;;;;15.73;9.33;;;;;;;13.65;64.15;101569.47;5033492;28;20196;-75
2021/11/23 05:10:15;;;;;;;20.60;10.67;;;;;;;13.80;64.35;101565.97;5032860;28;20640;-74
2021/11/23 05:12:41;;;;;;;20.43;10.00;;;;;;;13.89;64.04;101567.28;5034315;28;20172;-74
2021/11/23 05:15:07;;;;;;;22.87;10.73;;;;;;;14.24;63.15;101574.25;5035824;28;20537;-74
2021/11/23 05:17:33;;;;;;;18.87;9.60;;;;;;;14.08;63.76;101567.97;5036603;28;20216;-74
2021/11/23 05:19:58;;;;;;;20.00;12.73;;;;;;;13.59;64.67;101568.00;5038986;28;20200;-75
2021/11/23 05:22:23;;;;;;;14.37;9.70;;;;;;;13.84;64.21;101570.22;5035988;28;20191;-75
2021/11/23 05:24:49;;;;;;;19.70;9.33;;;;;;;14.18;63.30;101568.34;5037076;28;20176;-75
2021/11/23 05:27:14;;;;;;;17.47;9.80;;;;;;;14.01;64.25;101571.97;5035145;28;20211;-74
2021/11/23 05:29:40;;;;;;;18.07;9.30;;;;;;;13.85;64.20;101566.59;5035423;28;20227;-76
2021/11/23 05:32:06;;;;;;;18.37;8.67;;;;;;;13.69;64.63;101576.41;5015999;28;20172;-75
2021/11/23 05:34:31;;;;;;;15.17;9.53;;;;;;;13.98;64.13;101582.88;5031928;28;20615;-74
2021/11/23 05:36:57;;;;;;;16.03;9.10;;;;;;;13.83;64.81;101584.59;5031912;28;20172;-75
2021/11/23 05:39:22;;;;;;;15.60;9.33;;;;;;;14.00;63.84;101586.34;5033290;28;20594;-74
2021/11/23 05:41:49;;;;;;;16.83;9.63;;;;;;;14.31;63.31;101598.91;5033283;28;20672;-74
2021/11/23 05:44:14;;;;;;;13.60;8.33;;;;;;;14.05;63.49;101579.75;5032976;28;20172;-75
2021/11/23 05:46:40;;;;;;;21.47;8.53;;;;;;;14.54;62.91;101593.16;5032023;28;20254;-76
2021/11/23 05:49:06;;;;;;;20.97;9.13;;;;;;;14.39;63.09;101591.28;5031443;28;20215;-75
2021/11/23 05:51:31;;;;;;;12.97;8.17;;;;;;;14.20;63.56;101593.28;5032114;28;20173;-74
2021/11/23 05:53:57;;;;;;;12.20;7.87;;;;;;;14.57;62.94;101597.47;5031897;28;20168;-76
2021/11/23 05:56:22;;;;;;;15.90;8.87;;;;;;;14.28;63.36;101589.22;5031751;28;20256;-74
2021/11/23 05:58:47;;;;;;;16.73;8.60;;;;;;;14.03;63.80;101595.06;5031852;28;20211;-76
2021/11/23 06:01:12;;;;;;;19.63;9.87;;;;;;;14.30;63.31;101594.50;5032274;28;20636;-76
2021/11/23 06:03:38;;;;;;;18.27;9.03;;;;;;;14.23;63.71;101593.13;5031452;27;20184;-74
2021/11/23 06:06:03;;;;;;;17.70;9.40;;;;;;;14.17;63.48;101602.38;5014832;28;20221;-74
2021/11/23 06:08:29;;;;;;;14.40;8.83;;;;;;;14.48;63.46;101588.09;5015910;28;20207;-74
2021/11/23 06:11:07;;;;;;;19.23;9.73;;;;;;;14.43;63.55;101602.75;5031165;28;20272;-75
2021/11/23 06:13:32;;;;;;;18.07;9.63;;;;;;;14.05;64.60;101589.63;5031400;28;20266;-75
2021/11/23 06:15:57;;;;;;;19.67;10.33;;;;;;;14.29;64.18;101606.19;5015192;28;20255;-75
2021/11/23 06:18:23;;;;;;;16.80;9.90;;;;;;;14.14;64.37;101602.56;5031799;28;20680;-73
2021/11/23 06:20:51;;;;;;;18.13;10.23;;;;;;;14.24;64.37;101619.88;5031576;28;20187;-75
2021/11/23 06:23:18;;;;;;;18.97;9.17;;;;;;;14.42;64.19;101609.03;5032795;28;20217;-73
2021/11/23 06:25:49;;;;;;;20.27;10.70;;;;;;;14.27;64.58;101600.03;5032844;28;20194;-74
2021/11/23 06:28:16;;;;;;;17.00;9.77;;;;;;;14.78;63.18;101596.22;5014678;28;20188;-70
2021/11/23 06:30:42;;;;;;;20.20;10.07;;;;;;;14.51;63.08;101593.31;5030911;28;20177;-70
2021/11/23 06:33:08;;;;;;;18.43;10.90;;;;;;;14.29;64.01;101601.69;5030600;28;20536;-68
2021/11/23 06:35:34;;;;;;;21.40;11.13;;;;;;;14.52;63.33;101611.19;5030798;28;20176;-72
2021/11/23 06:37:59;;;;;;;23.17;10.07;;;;;;;14.58;63.46;101607.28;5030734;28;20240;-72
2021/11/23 06:40:24;;;;;;;22.67;11.33;;;;;;;14.88;63.04;101612.69;5032161;28;20200;-72
2021/11/23 06:42:50;;;;;;;20.80;10.90;;;;;;;14.69;62.85;101613.75;5032036;28;20646;-72
2021/11/23 06:45:15;;;;;;;20.03;10.47;;;;;;;14.59;63.49;101617.06;5032375;28;20179;-74
2021/11/23 06:47:41;;;;;;;27.63;9.97;;;;;;;14.41;63.45;101613.56;5031832;28;20204;-72
2021/11/23 06:50:07;;;;;;;18.90;9.63;;;;;;;14.72;63.35;101627.97;5014182;28;20200;-72
2021/11/23 06:52:33;;;;;;;19.87;9.57;;;;;;;14.43;64.37;101621.56;5030783;28;20180;-73
2021/11/23 06:54:58;;;;;;;18.90;9.80;;;;;;;14.80;62.93;101621.19;5030828;28;20232;-73
2021/11/23 06:57:23;;;;;;;20.33;9.60;;;;;;;14.75;62.91;101625.09;5030739;28;20176;-72
2021/11/23 06:59:49;;;;;;;23.10;10.23;;;;;;;15.11;62.21;101625.63;5030747;28;20262;-72
2021/11/23 07:02:14;;;;;;;23.67;10.27;;;;;;;15.08;62.28;101633.00;5030331;28;20176;-72
2021/11/23 07:04:39;;;;;;;18.30;9.57;;;;;;;15.01;62.51;101624.44;5030382;28;20515;-73
2021/11/23 07:07:05;;;;;;;21.80;9.63;;;;;;;14.62;63.61;101636.56;5030075;28;20198;-72
2021/11/23 07:09:30;;;;;;;24.33;9.33;;;;;;;15.01;62.23;101635.19;5030059;28;20200;-72
2021/11/23 07:11:56;;;;;;;19.20;8.97;;;;;;;15.05;62.24;101631.38;5031720;28;20188;-72
2021/11/23 07:14:21;;;;;;;15.70;9.17;;;;;;;15.11;62.24;101649.81;5031368;28;20219;-72
2021/11/23 07:16:47;;;;;;;22.00;7.87;;;;;;;15.08;62.02;101635.69;5030048;28;20183;-74
2021/11/23 07:19:13;;;;;;;26.83;9.10;;;;;;;15.53;61.52;101646.38;5030055;28;20231;-73
2021/11/23 07:21:39;;;;;;;16.37;8.67;;;;;;;15.42;61.42;101645.31;5029321;28;20216;-73
2021/11/23 07:24:04;;;;;;;16.70;7.83;;;;;;;15.30;61.81;101641.53;5013596;28;20180;-73
2021/11/23 07:26:31;;;;;;;18.73;7.30;;;;;;;15.17;62.03;101653.97;5031501;28;20251;-72
2021/11/23 07:28:57;;;;;;;19.50;6.60;;;;;;;15.30;61.78;101650.47;5031085;28;20659;-74
2021/11/23 07:31:23;;;;;;;14.43;7.00;;;;;;;15.41;61.29;101649.81;5030204;28;20664;-73
2021/11/23 07:33:48;;;;;;;14.13;6.53;;;;;;;15.40;61.13;101640.03;5030355;28;20168;-72
2021/11/23 07:36:14;;;;;;;13.20;6.17;;;;;;;15.66;60.74;101653.78;5031634;28;20172;-73
2021/11/23 07:38:39;;;;;;;13.00;5.93;;;;;;;15.70;60.55;101641.84;5031509;28;20184;-73
2021/11/23 07:41:04;;;;;;;16.90;6.53;;;;;;;15.48;60.93;101631.50;5029997;28;20172;-72
2021/11/23 07:43:30;;;;;;;19.27;6.63;;;;;;;15.20;61.64;101643.03;5031486;28;20176;-73
2021/11/23 07:45:55;;;;;;;15.40;5.33;;;;;;;15.52;60.92;101650.03;5031665;28;20170;-73
2021/11/23 07:48:20;;;;;;;17.73;6.00;;;;;;;15.59;61.07;101648.72;5031169;28;20245;-73
2021/11/23 07:50:46;;;;;;;14.13;5.90;;;;;;;15.47;61.16;101662.91;5029867;28;20181;-73
2021/11/23 07:53:11;;;;;;;14.60;6.30;;;;;;;15.75;60.51;101661.28;5031411;28;20173;-73
2021/11/23 07:55:36;;;;;;;20.97;5.70;;;;;;;15.37;61.10;101675.19;5030000;28;20213;-71
2021/11/23 07:58:02;;;;;;;18.90;5.20;;;;;;;15.78;60.53;101664.63;5030962;28;20232;-72
2021/11/23 08:00:29;;;;;;;17.40;4.90;;;;;;;15.80;60.62;101662.72;5031229;28;20187;-73
2021/11/23 08:02:55;;;;;;;10.90;4.30;;;;;;;15.56;60.95;101672.25;5030916;28;20176;-73
2021/11/23 08:05:21;;;;;;;13.13;4.50;;;;;;;15.83;60.01;101667.91;5032537;28;20173;-73
2021/11/23 08:07:46;;;;;;;9.53;3.77;;;;;;;16.20;59.60;101673.69;5013455;28;20699;-73
2021/11/23 08:10:11;;;;;;;11.30;3.70;;;;;;;16.27;59.50;101683.09;5029737;28;20688;-73
2021/11/23 08:12:37;;;;;;;15.30;3.87;;;;;;;15.95;59.86;101675.22;5031231;28;20176;-72
2021/11/23 08:15:04;;;;;;;13.33;4.20;;;;;;;16.53;58.59;101692.22;5029296;28;20187;-73
2021/11/23 08:17:30;;;;;;;14.53;5.07;;;;;;;16.52;58.63;101680.59;5029582;28;20165;-72
2021/11/23 08:19:57;;;;;;;16.40;5.40;;;;;;;16.46;58.77;101686.38;5030833;28;20192;-73
2021/11/23 08:22:22;;;;;;;14.33;4.17;;;;;;;16.07;59.67;101689.75;5030839;28;20176;-73
2021/11/23 08:24:47;;;;;;;16.33;3.83;;;;;;;15.99;59.37;101693.91;5029620;28;20178;-73
2021/11/23 08:27:13;;;;;;;12.80;3.20;;;;;;;16.11;59.18;101685.91;5030941;28;20649;-73
2021/11/23 08:29:38;;;;;;;12.40;3.23;;;;;;;16.60;58.14;101700.78;5030901;28;20198;-74
2021/11/23 08:32:04;;;;;;;11.30;3.17;;;;;;;16.38;58.96;101707.56;5030325;28;20610;-73
2021/11/23 08:34:30;;;;;;;10.63;3.10;;;;;;;16.35;59.11;101705.03;5030057;28;20179;-72
2021/11/23 08:36:55;;;;;;;13.17;2.87;;;;;;;15.85;59.45;101692.91;5030867;28;20557;-72
2021/11/23 08:39:21;;;;;;;11.70;3.40;;;;;;;16.67;58.46;101696.75;5029668;28;20195;-72
2021/11/23 08:41:47;;;;;;;10.83;2.60;;;;;;;16.36;58.75;101704.09;5029648;28;20309;-73
2021/11/23 08:44:12;;;;;;;9.73;2.57;;;;;;;16.22;59.42;101701.38;5030810;28;20189;-73
2021/11/23 08:46:38;;;;;;;10.07;2.87;;;;;;;16.51;58.81;101715.72;5030538;28;20180;-73
2021/11/23 08:49:04;;;;;;;14.23;2.80;;;;;;;15.78;59.87;101720.28;5028720;28;20202;-73
2021/11/23 08:51:33;;;;;;;9.53;2.47;;;;;;;15.76;59.23;101711.44;5030320;28;20168;-71
2021/11/23 08:53:59;;;;;;;10.00;2.23;;;;;;;16.32;58.74;101713.31;5029119;28;20196;-73
2021/11/23 08:56:29;;;;;;;9.87;2.53;;;;;;;16.30;59.04;101714.38;5030260;28;20180;-73
2021/11/23 08:58:56;;;;;;;8.77;2.57;;;;;;;16.28;59.32;101714.47;5029023;27;20198;-72
2021/11/23 09:01:24;;;;;;;11.73;2.63;;;;;;;16.11;59.60;101711.97;5030156;28;20257;-71
2021/11/23 09:03:50;;;;;;;9.97;2.47;;;;;;;16.80;58.37;101721.97;5028851;28;20672;-73
2021/11/23 09:06:15;;;;;;;14.63;3.10;;;;;;;16.32;59.26;101712.44;5029932;28;20175;-73
2021/11/23 09:08:46;;;;;;;10.33;3.07;;;;;;;16.20;60.01;101714.94;5029841;28;20202;-73
2021/11/23 09:11:11;;;;;;;9.10;2.60;;;;;;;16.40;59.32;101710.16;5028807;28;20173;-73
2021/11/23 09:13:36;;;;;;;10.50;2.43;;;;;;;16.60;58.67;101716.94;5012333;28;20546;-73
2021/11/23 09:16:02;;;;;;;13.57;3.53;;;;;;;16.51;59.24;101721.97;5030671;28;20223;-73
2021/11/23 09:18:27;;;;;;;9.63;2.90;;;;;;;16.86;58.55;101716.19;5030083;28;20677;-72
2021/11/23 09:20:52;;;;;;;10.77;2.47;;;;;;;16.70;58.48;101712.72;5029882;28;20172;-72
2021/11/23 09:23:18;;;;;;;13.93;3.07;;;;;;;16.78;58.14;101723.91;5029897;28;20175;-73
2021/11/23 09:25:43;;;;;;;13.83;3.13;;;;;;;16.09;59.30;101728.22;5029925;28;20187;-73
2021/11/23 09:28:09;;;;;;;8.10;2.70;;;;;;;16.67;58.83;101712.94;5029588;28;20201;-73
2021/11/23 09:30:35;;;;;;;12.03;2.77;;;;;;;16.86;58.39;101722.44;5028334;28;20238;-73
2021/11/23 09:33:01;;;;;;;13.10;3.07;;;;;;;16.50;59.27;101722.06;5029637;28;20214;-71
2021/11/23 09:35:27;;;;;;;14.00;3.00;;;;;;;16.06;59.76;101730.25;5028420;28;20667;-72
2021/11/23 09:37:54;;;;;;;15.20;3.00;;;;;;;16.22;59.57;101713.03;5029821;28;20173;-73
2021/11/23 09:40:20;;;;;;;11.50;2.63;;;;;;;16.78;58.10;101718.50;5029252;28;20193;-73
2021/11/23 09:42:47;;;;;;;11.77;2.63;;;;;;;16.79;58.55;101717.53;5029744;28;20696;-72
2021/11/23 09:45:12;;;;;;;9.57;2.37;;;;;;;16.81;58.12;101718.31;5029693;28;20168;-73
2021/11/23 09:47:38;;;;;;;10.33;2.20;;;;;;;16.78;58.07;101699.63;5032334;28;20213;-73
2021/11/23 09:50:05;;;;;;;15.17;3.07;;;;;;;17.27;57.59;101717.97;5031867;28;20572;-71
2021/11/23 09:52:32;;;;;;;13.17;3.07;;;;;;;17.45;57.20;101708.63;5032811;28;20167;-72
2021/11/23 09:54:57;;;;;;;12.07;2.57;;;;;;;16.89;57.50;101707.88;5031222;28;20182;-72
2021/11/23 09:57:23;;;;;;;14.70;2.83;;;;;;;16.51;58.12;101723.81;5032768;28;20163;-72
2021/11/23 09:59:48;;;;;;;10.97;2.30;;;;;;;16.86;57.67;101716.19;5032577;28;20191;-74
2021/11/23 10:02:24;;;;;;;9.23;2.50;;;;;;;17.28;57.65;101725.09;5031355;28;20187;-72
2021/11/23 10:05:06;;;;;;;8.40;2.20;;;;;;;17.44;57.17;101707.75;5031274;28;20173;-73
2021/11/23 10:07:40;;;;;;;13.70;2.50;;;;;;;17.27;57.41;101713.44;5032535;28;20244;-72
2021/11/23 10:10:11;;;;;;;10.87;2.40;;;;;;;17.90;56.06;101706.47;5031500;28;20597;-72
2021/11/23 10:12:36;;;;;;;9.50;2.60;;;;;;;17.42;56.48;101717.78;5032155;28;20172;-72
2021/11/23 10:15:25;;;;;;;13.27;2.73;;;;;;;17.50;56.70;101720.84;5046983;28;20233;-73
2021/11/23 10:17:55;;;;;;;12.17;2.50;;;;;;;17.66;56.37;101719.78;5037512;28;20661;-72
2021/11/23 10:20:28;;;;;;;11.00;2.37;;;;;;;18.68;54.74;101726.13;5033945;27;20225;-73
2021/11/23 10:22:54;;;;;;;8.37;2.37;;;;;;;18.31;54.76;101707.13;5034278;28;20519;-73
2021/11/23 10:25:19;;;;;;;12.60;3.87;;;;;;;17.65;55.44;101705.44;5032878;28;20231;-74
2021/11/23 10:27:45;;;;;;;10.50;2.50;;;;;;;17.57;55.54;101688.91;5033190;28;20229;-73
2021/11/23 10:30:11;;;;;;;12.80;2.20;;;;;;;17.27;56.81;101712.56;5032304;28;20199;-73
2021/11/23 10:32:47;;;;;;;13.93;2.37;;;;;;;17.93;55.38;101690.06;5031556;28;20229;-73
2021/11/23 10:35:22;;;;;;;11.30;2.00;;;;;;;17.47;56.51;101698.63;5032455;28;20197;-73
2021/11/23 10:37:47;;;;;;;15.53;3.00;;;;;;;17.81;55.94;101703.44;5031964;28;20163;-73
2021/11/23 10:40:27;;;;;;;10.47;1.80;;;;;;;18.09;55.19;101696.09;5030753;28;20191;-74
2021/11/23 10:43:05;;;;;;;9.67;1.93;;;;;;;17.98;55.72;101710.38;5031671;28;20186;-73
2021/11/23 10:45:36;;;;;;;8.43;1.80;;;;;;;17.68;55.94;101702.56;5031929;28;20275;-73
2021/11/23 10:48:04;;;;;;;7.90;2.13;;;;;;;18.80;53.62;101709.00;5031630;28;20203;-73
2021/11/23 10:50:29;;;;;;;13.03;2.00;;;;;;;17.61;56.05;101714.72;5031137;28;20191;-72
2021/11/23 10:53:15;;;;;;;14.83;1.87;;;;;;;17.87;55.53;101717.50;5032606;28;20533;-72
2021/11/23 10:55:42;;;;;;;10.57;2.13;;;;;;;17.54;56.14;101726.91;5031863;28;20676;-73
2021/11/23 10:58:11;;;;;;;10.07;2.17;;;;;;;17.52;56.40;101718.06;5030362;28;20182;-73
2021/11/23 11:00:41;;;;;;;11.47;2.47;;;;;;;17.17;56.26;101720.41;5031639;28;20171;-73
2021/11/23 11:03:07;;;;;;;6.73;1.83;;;;;;;16.38;58.33;101709.38;5030409;28;20175;-73
2021/11/23 11:05:34;;;;;;;7.93;1.77;;;;;;;17.23;56.59;101738.03;5030426;28;20187;-73
2021/11/23 11:08:01;;;;;;;9.20;2.23;;;;;;;17.19;57.06;101742.75;5013281;28;20203;-72
2021/11/23 11:10:27;;;;;;;8.77;2.37;;;;;;;17.87;55.31;101734.56;5031480;28;20180;-73
2021/11/23 11:12:53;;;;;;;9.30;1.67;;;;;;;17.41;55.76;101726.00;5031606;28;20606;-74
2021/11/23 11:15:25;;;;;;;13.40;2.50;;;;;;;17.61;55.60;101732.75;5031601;28;20172;-73